Time;durP1;ratioP1;P1;durP2;ratioP2;P2;SDS_P1;SDS_P2;PMS_P1;PMS_P2;Temp;Humidity;BMP_temperature;BMP_pressure;BME280_temperature;BME280_humidity;BME280_pressure;Samples;Min_cycle;Max_cycle;Signal;HPM_P1;HPM_P2
2022/08/22 00:00:22;;;;;;;12.80;3.13;;;;;;;21.03;60.48;100935.38;5058026;28;20044;-64
2022/08/22 00:03:02;;;;;;;12.60;3.28;;;;;;;20.49;61.88;100932.94;5037904;28;20492;-64
2022/08/22 00:05:51;;;;;;;11.88;3.00;;;;;;;20.39;62.38;100938.34;5062195;28;20045;-63
2022/08/22 00:08:27;;;;;;;14.90;3.17;;;;;;;20.48;61.83;100931.31;5054389;28;20065;-64
2022/08/22 00:11:17;;;;;;;15.13;3.17;;;;;;;20.58;61.60;100935.47;5053441;28;20049;-64
2022/08/22 00:14:23;;;;;;;14.27;3.10;;;;;;;20.65;61.68;100930.78;5052951;28;20064;-64
2022/08/22 00:16:53;;;;;;;15.32;3.50;;;;;;;20.89;60.55;100924.75;5020186;28;20064;-64
2022/08/22 00:19:40;;;;;;;;;;;;;;;20.67;61.43;100919.22;5054568;28;20063;-64
2022/08/22 00:22:13;;;;;;;13.95;3.22;;;;;;;20.52;61.51;100917.38;5069959;28;19932;-64
2022/08/22 00:24:57;;;;;;;14.93;3.03;;;;;;;20.69;60.52;100912.06;5065561;28;20055;-64
2022/08/22 00:27:43;;;;;;;10.75;2.75;;;;;;;20.78;59.99;100911.81;5070202;28;20056;-64
2022/08/22 00:30:14;;;;;;;14.13;3.28;;;;;;;20.70;59.98;100905.28;5069449;28;20053;-65
2022/08/22 00:32:47;;;;;;;10.68;2.92;;;;;;;20.79;59.61;100905.81;5073214;28;20063;-64
2022/08/22 00:35:33;;;;;;;8.80;2.67;;;;;;;21.02;59.28;100900.19;5072840;28;20436;-65
2022/08/22 00:38:08;;;;;;;13.95;3.05;;;;;;;21.18;58.40;100898.78;5057281;28;20060;-65
2022/08/22 00:41:02;;;;;;;8.10;2.30;;;;;;;20.90;59.40;100894.78;5058499;28;20063;-63
2022/08/22 00:43:55;;;;;;;10.50;2.70;;;;;;;20.36;60.99;100902.72;5064539;28;20048;-63
2022/08/22 00:46:39;;;;;;;12.20;3.08;;;;;;;20.71;60.11;100906.88;5047648;28;20065;-63
2022/08/22 00:49:10;;;;;;;11.50;2.63;;;;;;;20.65;60.75;100916.81;5052370;28;20052;-63
2022/08/22 00:51:49;;;;;;;;;;;;;;;20.63;60.61;100916.38;5050247;28;20053;-63
2022/08/22 00:54:35;;;;;;;14.90;3.17;;;;;;;20.48;60.92;100916.50;5049865;28;19921;-63
2022/08/22 00:57:17;;;;;;;10.88;3.00;;;;;;;20.44;61.16;100926.84;5088844;28;20040;-65
2022/08/22 00:59:49;;;;;;;11.35;3.00;;;;;;;20.46;61.36;100910.47;5068717;28;20068;-63
2022/08/22 01:02:26;;;;;;;11.15;2.50;;;;;;;20.49;60.91;100920.91;5051818;28;20056;-63
2022/08/22 01:05:31;;;;;;;11.05;2.80;;;;;;;20.48;60.46;100919.31;5052206;28;20045;-63
2022/08/22 01:08:13;;;;;;;11.88;2.65;;;;;;;20.19;60.88;100932.00;5061324;28;20044;-63
2022/08/22 01:11:04;;;;;;;12.70;2.95;;;;;;;20.42;60.41;100927.22;5060921;28;20053;-63
2022/08/22 01:14:06;;;;;;;11.00;2.67;;;;;;;20.75;59.28;100930.16;5052570;28;20053;-63
2022/08/22 01:16:53;;;;;;;9.27;2.55;;;;;;;20.58;58.95;100929.88;5032997;28;20063;-63
2022/08/22 01:19:31;;;;;;;11.73;2.63;;;;;;;20.54;59.15;100915.81;5046964;28;20049;-63
2022/08/22 01:22:17;;;;;;;9.07;2.75;;;;;;;20.42;58.54;100915.19;5039317;28;20048;-63
2022/08/22 01:27:57;;;;;;;13.70;3.28;;;;;;;20.32;59.31;100913.84;5060079;28;20057;-64
2022/08/22 01:30:50;;;;;;;13.80;2.60;;;;;;;20.48;58.56;100913.72;5067532;28;20041;-64
2022/08/22 01:33:52;;;;;;;12.73;2.90;;;;;;;20.75;57.46;100910.56;5053545;28;20052;-64
2022/08/22 01:37:04;;;;;;;10.07;2.47;;;;;;;20.46;58.43;100902.09;5067873;28;20064;-63
2022/08/22 01:39:38;;;;;;;9.50;2.33;;;;;;;20.26;58.79;100895.75;4998291;28;20054;-64
2022/08/22 01:42:26;;;;;;;8.93;2.58;;;;;;;20.14;58.82;100902.34;4980975;28;20057;-64
2022/08/22 01:45:31;;;;;;;11.73;2.47;;;;;;;20.11;59.11;100907.88;5035794;28;20072;-64
2022/08/22 01:48:16;;;;;;;11.43;3.03;;;;;;;19.97;59.07;100897.25;5059944;28;20087;-65
2022/08/22 01:50:51;;;;;;;13.73;2.55;;;;;;;19.83;60.04;100885.78;5058401;28;20061;-64
2022/08/22 01:53:57;;;;;;;9.73;2.08;;;;;;;19.81;59.93;100896.53;5058863;28;20076;-65
2022/08/22 01:56:32;;;;;;;8.45;2.33;;;;;;;19.83;60.12;100898.97;5059979;28;20045;-64
2022/08/22 01:59:02;;;;;;;12.68;2.65;;;;;;;19.79;60.26;100895.28;5060227;28;20068;-64
2022/08/22 02:01:39;;;;;;;10.05;2.60;;;;;;;19.89;60.12;100897.50;5056422;28;20084;-64
2022/08/22 02:04:41;;;;;;;8.32;2.45;;;;;;;20.05;59.53;100903.75;5059731;28;20052;-64
2022/08/22 02:07:34;;;;;;;11.77;3.17;;;;;;;19.98;59.44;100904.44;4988345;28;20065;-64
2022/08/22 02:10:10;;;;;;;10.93;2.70;;;;;;;20.09;59.08;100913.84;5059045;28;20439;-64
2022/08/22 02:12:41;;;;;;;9.95;2.22;;;;;;;20.15;58.82;100903.16;5058920;28;20053;-64
2022/08/22 02:15:22;;;;;;;10.65;2.40;;;;;;;20.27;58.59;100905.78;5059811;28;20056;-64
2022/08/22 02:17:54;;;;;;;9.60;2.35;;;;;;;20.24;57.80;100898.16;5058199;28;20052;-64
2022/08/22 02:20:29;;;;;;;7.78;2.30;;;;;;;20.13;58.43;100897.13;5074553;28;20060;-64
2022/08/22 02:23:23;;;;;;;11.13;2.40;;;;;;;19.99;58.35;100899.66;5065891;28;20060;-64
2022/08/22 02:26:01;;;;;;;10.02;2.17;;;;;;;20.01;58.32;100914.09;5058623;28;20053;-67
2022/08/22 02:28:58;;;;;;;13.43;2.97;;;;;;;20.16;57.54;100902.00;5062074;28;20056;-64
2022/08/22 02:31:42;;;;;;;9.50;2.78;;;;;;;20.11;58.06;100897.50;5050210;28;20048;-64
2022/08/22 02:34:34;;;;;;;9.00;2.70;;;;;;;19.73;59.19;100896.78;5058291;28;20064;-64
2022/08/22 02:37:08;;;;;;;17.00;2.58;;;;;;;19.42;59.83;100900.53;5079587;28;20067;-64
2022/08/22 02:39:55;;;;;;;12.57;3.58;;;;;;;19.67;59.73;100901.03;5073588;28;20055;-65
2022/08/22 02:42:23;;;;;;;6.88;1.95;;;;;;;20.06;58.12;100897.81;5058274;28;20048;-64
2022/08/22 02:45:00;;;;;;;11.50;2.53;;;;;;;19.97;58.24;100910.41;5075219;28;20075;-63
2022/08/22 02:48:00;;;;;;;10.00;2.70;;;;;;;19.71;59.52;100913.09;5058952;28;20414;-63
2022/08/22 02:50:28;;;;;;;;;;;;;;;19.64;59.87;100905.41;5052940;28;20072;-64
2022/08/22 02:53:04;;;;;;;9.25;2.42;;;;;;;19.79;60.42;100904.47;5043976;28;19920;-64
2022/08/22 02:55:45;;;;;;;9.10;2.70;;;;;;;19.85;59.98;100897.41;5056428;28;20060;-64
2022/08/22 02:58:29;;;;;;;10.95;2.90;;;;;;;20.02;59.42;100902.53;5054649;28;20052;-63
2022/08/22 03:00:56;;;;;;;11.00;2.65;;;;;;;19.89;60.39;100906.66;5054618;28;20041;-63
2022/08/22 03:03:27;;;;;;;13.68;2.53;;;;;;;19.91;60.43;100901.50;5059315;28;20068;-63
2022/08/22 03:06:01;;;;;;;11.18;3.00;;;;;;;20.00;60.64;100901.25;5070580;28;20064;-64
2022/08/22 03:08:32;;;;;;;9.23;2.58;;;;;;;19.94;61.29;100898.00;5055654;28;20496;-63
2022/08/22 03:11:22;;;;;;;12.52;2.70;;;;;;;19.85;61.35;100891.81;5056460;28;20056;-64
2022/08/22 03:14:00;;;;;;;14.57;2.72;;;;;;;19.99;61.09;100894.06;5054278;28;20653;-64
2022/08/22 03:16:53;;;;;;;12.23;3.33;;;;;;;19.94;61.03;100892.41;5060791;28;20162;-64
2022/08/22 03:19:45;;;;;;;10.50;2.50;;;;;;;19.73;61.85;100903.19;5061906;28;20064;-64
2022/08/22 03:22:19;;;;;;;10.60;2.53;;;;;;;19.87;61.50;100900.66;5054271;28;20060;-64
2022/08/22 03:25:11;;;;;;;10.38;2.50;;;;;;;19.85;61.60;100902.19;5051029;28;20057;-64
2022/08/22 03:27:41;;;;;;;10.45;2.63;;;;;;;19.77;61.80;100909.63;5068830;28;20053;-64
2022/08/22 03:30:17;;;;;;;12.85;2.63;;;;;;;19.95;61.50;100901.56;5070050;28;20044;-64
2022/08/22 03:32:49;;;;;;;10.18;3.03;;;;;;;20.06;60.98;100897.00;5074303;28;20095;-64
2022/08/22 03:35:29;;;;;;;10.90;2.88;;;;;;;19.84;61.52;100893.00;5070057;28;20049;-64
2022/08/22 03:38:13;;;;;;;13.93;3.13;;;;;;;19.94;61.85;100892.41;5053972;28;20060;-64
2022/08/22 03:41:04;;;;;;;10.73;2.70;;;;;;;19.87;61.28;100891.44;5021297;28;20056;-64
2022/08/22 03:44:04;;;;;;;10.68;2.65;;;;;;;19.62;62.15;100898.56;5037559;28;20048;-64
2022/08/22 03:46:32;;;;;;;11.95;2.95;;;;;;;19.57;62.23;100896.88;5038204;28;20541;-65
2022/08/22 03:49:02;;;;;;;14.80;3.05;;;;;;;19.60;62.72;100893.34;5064375;28;20048;-65
2022/08/22 03:52:01;;;;;;;11.85;3.00;;;;;;;19.40;63.09;100891.75;5075698;28;20048;-64
2022/08/22 03:54:40;;;;;;;12.70;3.03;;;;;;;19.37;62.73;100886.09;5053705;28;20428;-64
2022/08/22 03:57:37;;;;;;;12.82;2.95;;;;;;;19.53;63.10;100882.00;5070659;28;20044;-65
2022/08/22 04:00:10;;;;;;;11.48;3.13;;;;;;;19.46;62.88;100881.88;5009030;28;20442;-65
2022/08/22 04:02:55;;;;;;;14.23;2.95;;;;;;;19.44;62.63;100878.63;5051115;28;20048;-64
2022/08/22 04:05:33;;;;;;;10.32;2.65;;;;;;;19.40;63.22;100866.59;5054743;28;20056;-65
2022/08/22 04:08:35;;;;;;;13.43;2.63;;;;;;;19.20;63.55;100861.34;5054606;28;20048;-65
2022/08/22 04:11:40;;;;;;;12.80;2.88;;;;;;;19.21;63.50;100865.78;5035160;28;20060;-64
2022/08/22 04:14:26;;;;;;;9.65;2.55;;;;;;;19.34;63.61;100865.28;5054949;28;20143;-64
2022/08/22 04:17:34;;;;;;;11.23;2.72;;;;;;;19.28;63.44;100863.94;5054601;28;20048;-64
2022/08/22 04:20:10;;;;;;;12.38;2.88;;;;;;;19.25;63.50;100870.25;5050055;28;20057;-64
2022/08/22 04:23:16;;;;;;;9.50;3.00;;;;;;;19.20;63.51;100870.53;5063692;28;20056;-65
2022/08/22 04:25:51;;;;;;;11.50;3.00;;;;;;;19.19;63.41;100887.66;5034434;28;20056;-63
2022/08/22 04:28:44;;;;;;;11.80;2.78;;;;;;;19.45;62.58;100877.47;5044633;28;20056;-64
2022/08/22 04:31:16;;;;;;;11.43;2.90;;;;;;;19.42;62.59;100866.22;5069514;28;20060;-64
2022/08/22 04:34:05;;;;;;;11.48;2.88;;;;;;;19.49;62.25;100861.56;5066314;28;20399;-64
2022/08/22 04:36:34;;;;;;;12.23;2.80;;;;;;;19.40;62.59;100866.59;5067225;28;20488;-64
2022/08/22 04:39:13;;;;;;;11.48;3.00;;;;;;;19.42;62.84;100874.63;5052682;28;20049;-64
2022/08/22 04:41:51;;;;;;;13.15;2.92;;;;;;;19.42;62.44;100867.03;5054542;28;20053;-65
2022/08/22 04:44:26;;;;;;;10.57;3.00;;;;;;;19.42;62.79;100860.66;5052997;28;20059;-64
2022/08/22 04:47:01;;;;;;;11.90;3.30;;;;;;;19.56;62.39;100861.72;5053957;28;20053;-64
2022/08/22 04:49:38;;;;;;;12.60;3.28;;;;;;;19.47;62.77;100877.91;5053337;28;20076;-65
2022/08/22 04:52:27;;;;;;;13.63;3.65;;;;;;;19.31;63.10;100879.97;5052848;28;20044;-64
2022/08/22 04:54:55;;;;;;;16.38;2.90;;;;;;;19.16;63.67;100885.63;5070208;28;20040;-64
2022/08/22 04:57:38;;;;;;;11.25;2.95;;;;;;;19.24;63.64;100888.19;5053542;28;20103;-64
2022/08/22 05:00:09;;;;;;;9.52;2.70;;;;;;;19.25;64.04;100900.97;5052636;28;20049;-64
2022/08/22 05:02:39;;;;;;;12.63;2.53;;;;;;;19.21;63.97;100897.31;5064780;28;20056;-66
2022/08/22 05:05:18;;;;;;;13.70;3.80;;;;;;;19.22;63.92;100884.13;5053727;28;20052;-64
2022/08/22 05:07:50;;;;;;;11.57;3.08;;;;;;;19.17;64.01;100895.59;5070151;28;20526;-65
2022/08/22 05:10:22;;;;;;;13.95;3.47;;;;;;;19.17;63.91;100909.56;5053344;28;20076;-65
2022/08/22 05:12:53;;;;;;;9.20;2.92;;;;;;;19.11;64.38;100925.00;5052663;28;20049;-64
2022/08/22 05:15:30;;;;;;;11.90;3.05;;;;;;;19.23;63.84;100920.06;5052298;28;20543;-64
2022/08/22 05:18:01;;;;;;;14.70;3.17;;;;;;;19.01;64.60;100912.41;5051717;28;20056;-65
2022/08/22 05:20:29;;;;;;;8.95;2.75;;;;;;;19.05;64.78;100902.13;5052658;28;20052;-63
2022/08/22 05:23:09;;;;;;;15.43;3.30;;;;;;;19.26;64.01;100899.81;5047928;28;20041;-65
2022/08/22 05:25:48;;;;;;;13.23;3.28;;;;;;;19.34;63.98;100904.38;5032123;28;20060;-64
2022/08/22 05:28:31;;;;;;;11.40;3.17;;;;;;;19.29;63.90;100907.44;5041320;28;20519;-64
2022/08/22 05:30:59;;;;;;;14.45;3.20;;;;;;;19.11;64.29;100906.25;5057959;28;20095;-67
2022/08/22 05:33:30;;;;;;;18.48;3.22;;;;;;;19.00;64.86;100914.38;5052183;28;20041;-69
2022/08/22 05:36:03;;;;;;;12.18;3.47;;;;;;;18.90;65.07;100925.31;5053572;28;20049;-67
2022/08/22 05:38:34;;;;;;;11.93;3.40;;;;;;;18.94;65.49;100924.22;5053233;28;20076;-68
2022/08/22 05:41:09;;;;;;;13.20;3.33;;;;;;;19.11;64.59;100925.78;5053328;28;20049;-67
2022/08/22 05:43:40;;;;;;;16.38;3.33;;;;;;;19.18;64.84;100927.94;5052940;28;20048;-68
2022/08/22 05:46:19;;;;;;;12.38;3.35;;;;;;;19.14;64.41;100929.84;5048966;28;20052;-68
2022/08/22 05:48:58;;;;;;;12.90;3.00;;;;;;;19.30;64.81;100933.41;5047789;28;20069;-68
2022/08/22 05:51:40;;;;;;;11.32;3.25;;;;;;;19.49;63.95;100934.22;5032542;28;20056;-68
2022/08/22 05:54:20;;;;;;;13.13;2.97;;;;;;;19.48;63.61;100926.22;5048858;28;20052;-68
2022/08/22 05:57:27;;;;;;;12.18;3.13;;;;;;;19.53;63.66;100923.13;5032874;28;20429;-68
2022/08/22 06:00:03;;;;;;;10.32;2.83;;;;;;;19.79;62.60;100929.63;5061694;28;20064;-68
2022/08/22 06:02:42;;;;;;;14.25;3.47;;;;;;;19.51;62.45;100936.66;5032366;28;20402;-68
2022/08/22 06:05:10;;;;;;;13.30;3.38;;;;;;;19.42;62.95;100936.06;5067243;28;20052;-69
2022/08/22 06:07:43;;;;;;;12.85;3.67;;;;;;;19.36;63.44;100935.56;5072345;28;20052;-68
2022/08/22 06:10:34;;;;;;;14.27;3.50;;;;;;;19.61;62.92;100936.88;5071832;28;20064;-68
2022/08/22 06:13:06;;;;;;;15.45;5.65;;;;;;;19.65;62.84;100939.75;5074265;28;20056;-68
2022/08/22 06:15:53;;;;;;;20.77;9.82;;;;;;;19.91;62.33;100937.84;5072112;28;20059;-68
2022/08/22 06:18:24;;;;;;;11.90;3.50;;;;;;;20.05;62.10;100938.13;5067917;28;20079;-68
2022/08/22 06:21:05;;;;;;;12.07;3.15;;;;;;;20.26;61.28;100934.94;5079833;28;20048;-68
2022/08/22 06:23:46;;;;;;;12.85;2.85;;;;;;;20.27;61.20;100928.16;5051668;28;20055;-65
2022/08/22 06:26:15;;;;;;;13.85;3.45;;;;;;;20.34;60.76;100933.06;5054322;28;20080;-67
2022/08/22 06:28:50;;;;;;;10.27;3.03;;;;;;;20.09;60.90;100938.19;5059544;28;20519;-66
2022/08/22 06:31:31;;;;;;;11.73;3.28;;;;;;;20.10;61.88;100946.19;5074848;28;20079;-66
2022/08/22 06:34:00;;;;;;;12.75;2.83;;;;;;;20.46;61.10;100941.25;5069091;28;20057;-65
2022/08/22 06:36:31;;;;;;;10.35;2.70;;;;;;;20.75;59.91;100938.53;5066145;28;20064;-64
2022/08/22 06:39:21;;;;;;;17.63;3.88;;;;;;;20.97;61.84;100943.28;5057528;28;20060;-63
2022/08/22 06:42:00;;;;;;;13.68;3.22;;;;;;;21.35;59.50;100936.66;5049988;28;20068;-63
2022/08/22 06:44:35;;;;;;;11.80;3.05;;;;;;;21.34;58.27;100939.84;5055748;28;20119;-63
2022/08/22 06:47:05;;;;;;;11.02;3.03;;;;;;;21.48;57.50;100929.59;5051309;28;20056;-63
2022/08/22 06:49:34;;;;;;;13.80;3.45;;;;;;;21.60;56.27;100934.16;5051695;28;20052;-64
2022/08/22 06:52:06;;;;;;;11.65;2.65;;;;;;;21.51;56.18;100934.44;5053661;28;20158;-65
2022/08/22 06:54:36;;;;;;;11.82;4.10;;;;;;;21.45;56.47;100932.34;5054887;28;20052;-64
2022/08/22 06:57:05;;;;;;;14.85;4.18;;;;;;;21.37;56.16;100939.06;5052645;28;20103;-65
2022/08/22 06:59:35;;;;;;;12.15;4.32;;;;;;;21.38;56.24;100933.06;5051612;28;20037;-65
2022/08/22 07:02:03;;;;;;;13.77;3.30;;;;;;;21.47;55.96;100918.75;5049860;28;20051;-64
2022/08/22 07:04:31;;;;;;;10.43;3.08;;;;;;;21.51;55.70;100920.44;5053241;28;20052;-64
2022/08/22 07:06:59;;;;;;;10.18;3.13;;;;;;;21.51;55.76;100942.88;5053590;28;20085;-64
2022/08/22 07:09:33;;;;;;;12.60;2.88;;;;;;;21.46;55.65;100954.41;5056947;28;20041;-64
2022/08/22 07:12:04;;;;;;;14.82;3.70;;;;;;;21.63;55.78;100953.00;5057112;28;20408;-65
2022/08/22 07:14:40;;;;;;;14.60;3.22;;;;;;;21.64;55.96;100955.44;5043286;28;20493;-65
2022/08/22 07:17:15;;;;;;;14.57;3.05;;;;;;;21.49;55.87;100961.25;5052870;28;20063;-65
2022/08/22 07:19:58;;;;;;;17.17;3.22;;;;;;;21.66;55.71;100952.22;5052736;28;20056;-65
2022/08/22 07:22:29;;;;;;;16.40;3.05;;;;;;;21.46;56.12;100964.81;5058041;28;20060;-66
2022/08/22 07:25:10;;;;;;;10.30;3.10;;;;;;;21.52;56.40;100966.06;5052344;28;20052;-65
2022/08/22 07:27:55;;;;;;;13.50;3.25;;;;;;;21.51;56.43;100970.91;5050664;28;20059;-65
2022/08/22 07:30:25;;;;;;;17.80;3.33;;;;;;;21.54;56.44;100972.13;5072342;28;20064;-65
2022/08/22 07:32:55;;;;;;;12.32;2.88;;;;;;;21.67;55.55;100968.66;5051952;28;20049;-65
2022/08/22 07:35:48;;;;;;;14.15;3.20;;;;;;;21.63;56.41;100972.63;5049311;28;20049;-65
2022/08/22 07:38:41;;;;;;;16.38;3.55;;;;;;;21.80;56.00;100963.66;5051324;28;20072;-65
2022/08/22 07:41:12;;;;;;;13.30;4.40;;;;;;;21.93;55.06;100953.81;5053755;28;20053;-63
2022/08/22 07:43:53;;;;;;;14.57;3.50;;;;;;;22.15;54.69;100959.25;5055135;28;20041;-64
2022/08/22 07:46:36;;;;;;;16.70;3.40;;;;;;;21.74;55.37;100962.38;5037582;28;20060;-63
2022/08/22 07:49:20;;;;;;;11.55;2.90;;;;;;;21.59;55.71;100966.97;5055473;28;20049;-65
2022/08/22 07:51:52;;;;;;;11.45;3.10;;;;;;;21.49;55.91;100972.44;5055947;28;20147;-64
2022/08/22 07:54:31;;;;;;;11.73;3.05;;;;;;;21.64;56.01;100977.84;5050661;28;20044;-65
2022/08/22 07:57:04;;;;;;;16.25;3.45;;;;;;;21.48;56.37;100971.63;5054113;28;20057;-64
2022/08/22 07:59:33;;;;;;;14.48;3.65;;;;;;;21.50;56.03;100974.06;5052917;28;20542;-65
2022/08/22 08:02:05;;;;;;;12.73;3.15;;;;;;;21.76;55.13;100968.41;5052806;28;20053;-65
2022/08/22 08:04:34;;;;;;;10.13;2.88;;;;;;;21.96;54.61;100969.84;5053929;28;20045;-66
2022/08/22 08:07:09;;;;;;;13.45;3.15;;;;;;;21.87;55.08;100964.56;5051340;28;20449;-65
2022/08/22 08:09:49;;;;;;;22.73;3.67;;;;;;;22.13;54.42;100970.03;5051721;28;20044;-63
2022/08/22 08:12:19;;;;;;;19.45;4.20;;;;;;;22.25;54.58;100964.16;5061009;28;20492;-65
2022/08/22 08:14:49;;;;;;;14.65;4.88;;;;;;;22.03;54.85;100967.13;5064351;28;20045;-65
2022/08/22 08:17:24;;;;;;;;;;;;;;;22.26;54.14;100971.38;5069600;28;20059;-65
2022/08/22 08:20:00;;;;;;;17.17;3.60;;;;;;;21.69;55.76;100987.94;5052247;28;19921;-65
2022/08/22 08:22:28;;;;;;;16.55;4.07;;;;;;;21.86;55.67;100979.75;5056943;28;20452;-64
2022/08/22 08:24:57;;;;;;;13.70;4.40;;;;;;;21.94;55.60;100970.25;5035929;28;20049;-65
2022/08/22 08:30:32;;;;;;;12.02;2.90;;;;;;;22.13;55.09;100989.69;5053588;28;20053;-64
2022/08/22 08:33:01;;;;;;;17.13;3.30;;;;;;;22.01;55.27;100989.13;5054140;28;20614;-65
2022/08/22 08:36:19;;;;;;;16.35;3.10;;;;;;;22.20;55.17;100984.16;5065984;28;20052;-64
2022/08/22 08:39:11;;;;;;;14.32;3.08;;;;;;;22.23;55.45;100969.34;5053469;28;20052;-65
2022/08/22 08:42:29;;;;;;;14.70;3.78;;;;;;;22.57;54.47;100972.09;5037855;28;20049;-65
2022/08/22 08:45:21;;;;;;;12.98;3.10;;;;;;;22.70;54.07;100970.59;5010874;28;20045;-64
2022/08/22 08:48:26;;;;;;;12.93;3.22;;;;;;;22.64;53.76;100961.72;5053936;28;20087;-64
2022/08/22 08:51:30;;;;;;;16.67;3.20;;;;;;;22.75;53.57;100961.81;5051171;28;20040;-65
2022/08/22 08:54:23;;;;;;;13.30;3.05;;;;;;;23.01;53.13;100953.16;5050168;28;20048;-64
2022/08/22 08:57:00;;;;;;;18.20;3.95;;;;;;;22.85;53.34;100950.66;5052730;28;20461;-64
2022/08/22 08:59:47;;;;;;;12.50;3.83;;;;;;;23.02;52.63;100944.34;5051255;28;20538;-64
2022/08/22 09:02:29;;;;;;;18.60;7.22;;;;;;;22.84;52.51;100934.97;5050419;28;20063;-65
2022/08/22 09:05:29;;;;;;;10.70;2.35;;;;;;;23.00;52.01;100934.69;5049509;28;20048;-67
2022/08/22 09:08:25;;;;;;;12.32;2.72;;;;;;;23.07;51.40;100932.72;5051329;28;20056;-64
2022/08/22 09:11:28;;;;;;;14.57;3.20;;;;;;;23.34;51.01;100924.88;5061517;28;20056;-65
2022/08/22 09:14:12;;;;;;;9.90;2.70;;;;;;;23.15;51.35;100925.94;5055029;28;20049;-67
2022/08/22 09:17:05;;;;;;;16.48;3.03;;;;;;;22.90;51.58;100930.63;5049747;28;20056;-64
2022/08/22 09:20:10;;;;;;;11.90;2.70;;;;;;;22.72;52.59;100928.88;5052103;28;20056;-65
2022/08/22 09:23:24;;;;;;;12.32;2.80;;;;;;;23.09;51.69;100927.53;5051591;28;20100;-68
2022/08/22 09:26:27;;;;;;;17.13;2.85;;;;;;;23.40;51.38;100915.66;5044251;28;20076;-65
2022/08/22 09:29:09;;;;;;;28.85;3.65;;;;;;;23.51;50.98;100924.16;5064224;28;20048;-67
2022/08/22 09:31:52;;;;;;;11.68;2.72;;;;;;;23.47;50.67;100920.50;5058017;28;20055;-68
2022/08/22 09:34:55;;;;;;;9.93;2.60;;;;;;;23.82;49.93;100922.63;5041986;28;20052;-66
2022/08/22 09:37:36;;;;;;;9.05;2.42;;;;;;;23.71;50.00;100914.16;5062636;28;20056;-66
2022/08/22 09:40:14;;;;;;;11.38;2.60;;;;;;;23.95;49.47;100912.63;5051257;28;20053;-65
2022/08/22 09:43:01;;;;;;;10.52;2.88;;;;;;;23.90;49.87;100916.63;5045473;28;20049;-65
2022/08/22 09:46:05;;;;;;;9.45;2.70;;;;;;;23.89;50.16;100911.41;5023552;28;20501;-64
2022/08/22 09:48:35;;;;;;;10.80;3.00;;;;;;;23.48;50.78;100910.06;5052255;28;20041;-65
2022/08/22 09:51:13;;;;;;;9.32;2.47;;;;;;;23.72;50.86;100896.09;5052757;28;20412;-65
2022/08/22 09:54:36;;;;;;;14.48;2.72;;;;;;;23.90;49.63;100905.38;5045887;28;20402;-66
2022/08/22 09:57:23;;;;;;;14.15;3.70;;;;;;;24.15;49.23;100905.44;5068943;28;20053;-66
2022/08/22 10:00:12;;;;;;;47.22;6.40;;;;;;;24.63;47.17;100895.41;5058199;28;20055;-65
2022/08/22 10:02:55;;;;;;;84.22;11.02;;;;;;;24.10;47.88;100900.22;5047022;28;20048;-65
2022/08/22 10:05:32;;;;;;;19.95;7.18;;;;;;;23.95;47.75;100901.38;5057880;28;20053;-65
2022/08/22 10:08:28;;;;;;;47.33;14.75;;;;;;;24.04;47.76;100908.22;5065002;28;20063;-66
2022/08/22 10:11:06;;;;;;;14.15;6.03;;;;;;;23.73;49.28;100903.31;5057174;28;20416;-66
2022/08/22 10:13:45;;;;;;;16.63;2.95;;;;;;;23.32;50.09;100919.66;5045978;28;20063;-65
2022/08/22 10:16:24;;;;;;;12.82;3.05;;;;;;;23.48;50.20;100908.06;5057465;28;20049;-66
2022/08/22 10:19:06;;;;;;;15.53;3.27;;;;;;;24.08;48.34;100899.78;5057489;28;20068;-66
2022/08/22 10:21:40;;;;;;;12.23;3.00;;;;;;;24.21;48.51;100907.47;5071727;28;20648;-66
2022/08/22 10:24:35;;;;;;;16.08;3.60;;;;;;;24.13;48.63;100903.03;5056280;28;20049;-66
2022/08/22 10:27:15;;;;;;;14.25;3.33;;;;;;;24.04;49.65;100908.22;5052194;28;20515;-66
2022/08/22 10:30:01;;;;;;;8.77;2.75;;;;;;;24.47;48.18;100900.63;5066823;28;20048;-66
2022/08/22 10:32:43;;;;;;;9.65;2.55;;;;;;;24.41;48.48;100894.59;5060647;28;20052;-65
2022/08/22 10:35:45;;;;;;;8.57;2.35;;;;;;;24.62;47.89;100893.78;5053350;28;20057;-66
2022/08/22 10:38:38;;;;;;;12.10;2.38;;;;;;;24.50;47.37;100892.19;5053947;28;20044;-65
2022/08/22 10:41:37;;;;;;;7.25;2.15;;;;;;;24.52;47.89;100898.22;5055961;28;20063;-65
2022/08/22 10:44:12;;;;;;;8.30;2.70;;;;;;;24.74;47.49;100899.00;5053628;28;20527;-65
2022/08/22 10:46:57;;;;;;;10.20;4.32;;;;;;;24.91;46.98;100892.56;5062833;28;20060;-65
2022/08/22 10:49:48;;;;;;;8.80;3.38;;;;;;;25.14;46.49;100895.69;5036038;28;20053;-65
2022/08/22 10:52:31;;;;;;;8.63;2.72;;;;;;;25.09;46.69;100900.97;5077159;28;20057;-66
2022/08/22 10:55:05;;;;;;;13.88;8.80;;;;;;;25.13;46.52;100901.75;5064875;28;20048;-65
2022/08/22 10:57:53;;;;;;;20.48;12.18;;;;;;;25.28;46.46;100894.88;5038062;28;20061;-65
2022/08/22 11:00:43;;;;;;;17.83;7.65;;;;;;;25.33;46.85;100891.63;5062884;28;20057;-66
2022/08/22 11:03:30;;;;;;;6.72;3.47;;;;;;;25.32;46.63;100887.19;5054900;28;20049;-67
2022/08/22 11:06:02;;;;;;;7.07;3.08;;;;;;;25.23;46.68;100889.63;5050024;28;20353;-66
2022/08/22 11:09:12;;;;;;;10.60;4.93;;;;;;;25.52;46.72;100891.16;5051333;28;20068;-66
2022/08/22 11:11:53;;;;;;;12.20;6.70;;;;;;;25.44;46.73;100896.03;5067099;28;20483;-66
2022/08/22 11:14:33;;;;;;;14.05;6.95;;;;;;;25.51;46.90;100896.00;5051365;28;20060;-66
2022/08/22 11:17:03;;;;;;;8.75;3.55;;;;;;;25.66;46.67;100899.56;5052912;28;20057;-65
2022/08/22 11:20:07;;;;;;;11.02;4.13;;;;;;;25.46;47.85;100892.78;5049852;28;20057;-66
2022/08/22 11:22:41;;;;;;;10.50;4.97;;;;;;;25.40;47.99;100894.44;5052715;28;20045;-67
2022/08/22 11:25:40;;;;;;;10.90;5.07;;;;;;;25.39;47.60;100881.53;5052241;28;20049;-66
2022/08/22 11:28:20;;;;;;;6.70;2.30;;;;;;;25.58;46.95;100890.31;5058204;28;20048;-66
2022/08/22 11:31:29;;;;;;;20.10;5.05;;;;;;;25.66;47.13;100882.63;5051161;28;20053;-65
2022/08/22 11:34:09;;;;;;;6.15;1.90;;;;;;;25.79;46.13;100878.09;5026206;28;20456;-66
2022/08/22 11:36:41;;;;;;;7.90;2.72;;;;;;;25.89;46.95;100880.03;5046434;28;20667;-65
2022/08/22 11:39:37;;;;;;;9.90;3.97;;;;;;;25.85;46.43;100876.47;5053439;28;20045;-66
2022/08/22 11:42:11;;;;;;;7.55;2.55;;;;;;;25.97;46.22;100869.53;5055497;28;20076;-65
2022/08/22 11:44:58;;;;;;;7.72;2.95;;;;;;;25.95;45.93;100872.75;5051573;28;20053;-66
2022/08/22 11:47:32;;;;;;;7.68;2.40;;;;;;;25.55;47.03;100867.75;5053336;28;20065;-65
2022/08/22 11:50:28;;;;;;;8.45;2.20;;;;;;;25.74;46.67;100864.44;5068576;28;20056;-66
2022/08/22 11:53:12;;;;;;;11.70;2.67;;;;;;;25.64;46.71;100864.50;5041989;28;20480;-65
2022/08/22 11:55:49;;;;;;;8.82;2.50;;;;;;;25.74;47.08;100870.06;5050024;28;20043;-65
2022/08/22 11:58:29;;;;;;;8.82;2.30;;;;;;;26.00;46.76;100869.50;5056942;28;20060;-65
2022/08/22 12:01:10;;;;;;;;;;;;;;;26.21;45.93;100860.88;5051101;28;20045;-66
2022/08/22 12:03:56;;;;;;;6.25;2.00;;;;;;;26.17;46.14;100862.94;5032052;28;19927;-67
2022/08/22 12:06:51;;;;;;;6.82;1.73;;;;;;;26.33;46.57;100866.03;5051796;28;20076;-66
2022/08/22 12:09:26;;;;;;;7.05;2.10;;;;;;;26.74;45.04;100862.44;5039883;28;20053;-66
2022/08/22 12:12:18;;;;;;;8.15;2.25;;;;;;;26.79;45.38;100862.00;5056366;28;20045;-65
2022/08/22 12:14:55;;;;;;;7.88;2.40;;;;;;;27.01;45.29;100863.34;5056253;28;20045;-65
2022/08/22 12:18:07;;;;;;;6.30;1.88;;;;;;;27.13;44.24;100860.78;5052038;28;20048;-65
2022/08/22 12:20:54;;;;;;;5.45;1.60;;;;;;;26.72;45.00;100859.25;5066276;28;20535;-64
2022/08/22 12:23:43;;;;;;;12.23;2.10;;;;;;;26.67;45.08;100858.47;5054661;28;20057;-65
2022/08/22 12:26:28;;;;;;;11.73;2.80;;;;;;;26.76;46.10;100855.16;5052050;28;20473;-66
2022/08/22 12:29:14;;;;;;;18.92;8.02;;;;;;;26.77;46.04;100855.94;5047636;28;20582;-66
2022/08/22 12:32:10;;;;;;;16.02;6.80;;;;;;;26.64;45.91;100852.81;5046979;28;20416;-66
2022/08/22 12:34:46;;;;;;;16.25;4.72;;;;;;;26.75;46.33;100855.56;5043321;28;20496;-65